Time,TemperatureF,DewpointF,PressureIn,WindDirection,WindDirectionDegrees,WindSpeedMPH,WindSpeedGustMPH,Humidity,HourlyPrecipIn,Conditions,Clouds,dailyrainin,SoftwareType,DateUTC
2013-03-18 00:51:00,36.4,35.0,30.19,SSE,151,0.0,4.0,95,0.01,,,0.00,weatherlink.com 1.10,2013-03-18 04:51:00,
2013-03-18 01:21:00,36.3,35.0,30.18,East,80,2.0,4.0,95,0.01,,,0.01,weatherlink.com 1.10,2013-03-18 05:21:00,
2013-03-18 01:36:00,36.4,35.0,30.18,NNE,32,5.0,7.0,95,0.02,,,0.02,weatherlink.com 1.10,2013-03-18 05:36:00,
2013-03-18 01:51:00,36.3,35.0,30.18,ENE,74,2.0,7.0,95,0.02,,,0.02,weatherlink.com 1.10,2013-03-18 05:51:00,
2013-03-18 02:06:00,36.3,35.0,30.18,East,98,1.0,11.0,95,0.01,,,0.02,weatherlink.com 1.10,2013-03-18 06:06:00,
2013-03-18 02:21:00,36.4,35.0,30.18,ESE,106,1.0,8.0,95,0.02,,,0.03,weatherlink.com 1.10,2013-03-18 06:21:00,
2013-03-18 02:36:00,36.4,35.0,30.18,ESE,105,4.0,7.0,95,0.01,,,0.03,weatherlink.com 1.10,2013-03-18 06:36:00,
2013-03-18 02:51:00,36.3,35.0,30.18,North,5,3.0,7.0,95,0.02,,,0.04,weatherlink.com 1.10,2013-03-18 06:51:00,
2013-03-18 03:06:00,36.3,35.0,30.18,NE,49,4.0,7.0,95,0.02,,,0.04,weatherlink.com 1.10,2013-03-18 07:06:00,
2013-03-18 03:21:00,36.2,35.0,30.18,NE,43,1.0,10.0,95,0.01,,,0.04,weatherlink.com 1.10,2013-03-18 07:21:00,
2013-03-18 03:36:00,36.1,35.0,30.18,NNE,17,3.0,10.0,95,0.02,,,0.05,weatherlink.com 1.10,2013-03-18 07:36:00,
2013-03-18 03:51:00,36.0,35.0,30.18,North,355,1.0,8.0,95,0.01,,,0.05,weatherlink.com 1.10,2013-03-18 07:51:00,
2013-03-18 04:06:00,35.9,35.0,30.18,NNW,335,1.0,5.0,95,0.02,,,0.06,weatherlink.com 1.10,2013-03-18 08:06:00,
2013-03-18 04:36:00,35.7,34.0,30.17,North,11,2.0,6.0,95,0.01,,,0.06,weatherlink.com 1.10,2013-03-18 08:36:00,
2013-03-18 04:51:00,35.7,34.0,30.17,East,92,6.0,7.0,95,0.01,,,0.06,weatherlink.com 1.10,2013-03-18 08:51:00,
2013-03-18 05:06:00,35.7,34.0,30.18,North,360,1.0,6.0,95,0.01,,,0.07,weatherlink.com 1.10,2013-03-18 09:06:00,
2013-03-18 05:21:00,35.7,34.0,30.19,NE,55,0.0,8.0,95,0.01,,,0.07,weatherlink.com 1.10,2013-03-18 09:21:00,
2013-03-18 05:51:00,35.4,34.0,30.19,NNW,341,2.0,8.0,95,0.01,,,0.07,weatherlink.com 1.10,2013-03-18 09:51:00,
2013-03-18 06:06:00,35.4,34.0,30.20,NNW,343,0.0,6.0,95,0.01,,,0.08,weatherlink.com 1.10,2013-03-18 10:06:00,
2013-03-18 06:21:00,35.4,34.0,30.20,NNE,27,4.0,5.0,95,0.01,,,0.08,weatherlink.com 1.10,2013-03-18 10:21:00,
2013-03-18 06:36:00,35.3,34.0,30.20,NNW,346,1.0,6.0,95,0.01,,,0.08,weatherlink.com 1.10,2013-03-18 10:36:00,
2013-03-18 06:51:00,35.2,34.0,30.20,ENE,57,2.0,8.0,95,0.01,,,0.08,weatherlink.com 1.10,2013-03-18 10:51:00,
2013-03-18 07:06:00,35.3,34.0,30.21,NNE,15,2.0,4.0,95,0.00,,,0.08,weatherlink.com 1.10,2013-03-18 11:06:00,
2013-03-18 07:21:00,35.3,34.0,30.20,NE,38,0.0,5.0,95,0.00,,,0.08,weatherlink.com 1.10,2013-03-18 11:21:00,
2013-03-18 07:37:00,35.0,34.0,30.21,NNE,32,2.0,10.0,95,0.00,,,0.08,weatherlink.com 1.10,2013-03-18 11:37:00,
2013-03-18 07:51:00,34.9,34.0,30.21,NNE,32,0.0,8.0,95,0.00,,,0.08,weatherlink.com 1.10,2013-03-18 11:51:00,
2013-03-18 08:07:00,34.8,34.0,30.21,ENE,65,1.0,5.0,95,0.00,,,0.08,weatherlink.com 1.10,2013-03-18 12:07:00,
2013-03-18 08:22:00,34.8,34.0,30.21,East,95,1.0,10.0,95,0.01,,,0.09,weatherlink.com 1.10,2013-03-18 12:22:00,
2013-03-18 08:37:00,34.7,34.0,30.21,ENE,69,3.0,8.0,95,0.01,,,0.09,weatherlink.com 1.10,2013-03-18 12:37:00,
2013-03-18 08:52:00,34.5,33.0,30.20,ENE,76,8.0,8.0,95,0.01,,,0.09,weatherlink.com 1.10,2013-03-18 12:52:00,
2013-03-18 09:07:00,34.4,33.0,30.20,NE,47,3.0,8.0,95,0.01,,,0.09,weatherlink.com 1.10,2013-03-18 13:07:00,
2013-03-18 09:22:00,34.4,33.0,30.20,North,360,3.0,5.0,95,0.00,,,0.09,weatherlink.com 1.10,2013-03-18 13:22:00,
2013-03-18 09:37:00,34.4,33.0,30.20,ENE,57,4.0,7.0,95,0.00,,,0.09,weatherlink.com 1.10,2013-03-18 13:37:00,
2013-03-18 09:52:00,34.6,33.0,30.20,NE,42,1.0,4.0,95,0.00,,,0.09,weatherlink.com 1.10,2013-03-18 13:52:00,
2013-03-18 10:07:00,34.5,33.0,30.19,NE,46,1.0,7.0,95,0.00,,,0.09,weatherlink.com 1.10,2013-03-18 14:07:00,
2013-03-18 10:22:00,34.4,33.0,30.19,NNE,28,6.0,9.0,95,0.01,,,0.10,weatherlink.com 1.10,2013-03-18 14:22:00,
2013-03-18 10:37:00,34.4,33.0,30.19,NE,46,3.0,8.0,95,0.01,,,0.10,weatherlink.com 1.10,2013-03-18 14:37:00,
2013-03-18 10:52:00,34.7,34.0,30.19,NW,315,3.0,6.0,95,0.01,,,0.10,weatherlink.com 1.10,2013-03-18 14:52:00,
2013-03-18 11:07:00,34.8,34.0,30.19,NE,41,3.0,5.0,95,0.02,,,0.11,weatherlink.com 1.10,2013-03-18 15:07:00,
2013-03-18 11:22:00,35.1,34.0,30.17,NE,45,2.0,5.0,95,0.01,,,0.11,weatherlink.com 1.10,2013-03-18 15:22:00,
2013-03-18 11:37:00,35.3,34.0,30.17,NE,38,4.0,11.0,95,0.01,,,0.11,weatherlink.com 1.10,2013-03-18 15:37:00,
2013-03-18 11:52:00,35.6,34.0,30.17,North,9,3.0,7.0,95,0.01,,,0.11,weatherlink.com 1.10,2013-03-18 15:52:00,
2013-03-18 12:07:00,35.7,34.0,30.16,NNE,20,1.0,8.0,94,0.00,,,0.11,weatherlink.com 1.10,2013-03-18 16:07:00,
2013-03-18 12:22:00,35.9,34.0,30.16,NNW,334,4.0,7.0,94,0.00,,,0.11,weatherlink.com 1.10,2013-03-18 16:22:00,
2013-03-18 12:37:00,36.1,35.0,30.15,ENE,59,0.0,4.0,94,0.00,,,0.11,weatherlink.com 1.10,2013-03-18 16:37:00,
2013-03-18 12:52:00,36.1,35.0,30.14,NE,36,1.0,6.0,94,0.00,,,0.11,weatherlink.com 1.10,2013-03-18 16:52:00,
2013-03-18 13:07:00,36.4,35.0,30.14,SSE,147,0.0,7.0,95,0.00,,,0.11,weatherlink.com 1.10,2013-03-18 17:07:00,
2013-03-18 13:22:00,36.5,35.0,30.13,ENE,74,1.0,7.0,94,0.00,,,0.11,weatherlink.com 1.10,2013-03-18 17:22:00,
2013-03-18 13:37:00,36.5,35.0,30.12,NNE,16,4.0,7.0,94,0.00,,,0.11,weatherlink.com 1.10,2013-03-18 17:37:00,
2013-03-18 13:52:00,36.6,35.0,30.10,SSE,153,0.0,4.0,94,0.00,,,0.11,weatherlink.com 1.10,2013-03-18 17:52:00,
2013-03-18 14:07:00,36.9,35.0,30.09,SSE,153,0.0,6.0,94,0.00,,,0.11,weatherlink.com 1.10,2013-03-18 18:07:00,
2013-03-18 14:22:00,36.8,35.0,30.08,East,92,0.0,5.0,94,0.00,,,0.11,weatherlink.com 1.10,2013-03-18 18:22:00,
2013-03-18 14:37:00,36.8,35.0,30.08,ENE,76,0.0,5.0,94,0.00,,,0.11,weatherlink.com 1.10,2013-03-18 18:37:00,
2013-03-18 14:52:00,36.7,35.0,30.07,ENE,63,2.0,4.0,94,0.00,,,0.11,weatherlink.com 1.10,2013-03-18 18:52:00,
2013-03-18 15:07:00,37.0,36.0,30.06,SE,127,0.0,3.0,95,0.00,,,0.11,weatherlink.com 1.10,2013-03-18 19:07:00,
2013-03-18 15:22:00,36.9,35.0,30.05,NE,36,3.0,4.0,94,0.00,,,0.11,weatherlink.com 1.10,2013-03-18 19:22:00,
2013-03-18 15:37:00,37.3,36.0,30.04,East,84,1.0,5.0,95,0.00,,,0.11,weatherlink.com 1.10,2013-03-18 19:37:00,
2013-03-18 15:52:00,37.3,36.0,30.05,NNE,12,3.0,5.0,95,0.00,,,0.11,weatherlink.com 1.10,2013-03-18 19:52:00,
2013-03-18 16:07:00,37.5,36.0,30.05,NNE,22,0.0,4.0,94,0.00,,,0.11,weatherlink.com 1.10,2013-03-18 20:07:00,
2013-03-18 16:22:00,37.6,36.0,30.05,NNE,22,1.0,5.0,94,0.00,,,0.11,weatherlink.com 1.10,2013-03-18 20:22:00,
2013-03-18 16:37:00,37.4,36.0,30.03,North,355,0.0,5.0,94,0.00,,,0.11,weatherlink.com 1.10,2013-03-18 20:37:00,
2013-03-18 16:52:00,37.2,36.0,30.00,ENE,57,1.0,7.0,95,0.01,,,0.12,weatherlink.com 1.10,2013-03-18 20:52:00,
2013-03-18 17:07:00,37.4,36.0,30.03,North,350,2.0,2.0,95,0.01,,,0.12,weatherlink.com 1.10,2013-03-18 21:07:00,
2013-03-18 17:22:00,37.3,36.0,30.03,NNE,12,2.0,5.0,95,0.01,,,0.12,weatherlink.com 1.10,2013-03-18 21:22:00,
2013-03-18 17:37:00,37.1,36.0,30.03,NNE,12,1.0,4.0,95,0.00,,,0.12,weatherlink.com 1.10,2013-03-18 21:37:00,
2013-03-18 17:52:00,37.0,36.0,30.05,NNW,340,2.0,4.0,95,0.00,,,0.12,weatherlink.com 1.10,2013-03-18 21:52:00,
2013-03-18 18:07:00,36.6,35.0,30.03,North,355,1.0,6.0,95,0.01,,,0.13,weatherlink.com 1.10,2013-03-18 22:07:00,
2013-03-18 18:22:00,36.5,35.0,30.00,NW,321,2.0,4.0,95,0.02,,,0.14,weatherlink.com 1.10,2013-03-18 22:22:00,
2013-03-18 18:37:00,36.4,35.0,30.02,NE,53,0.0,3.0,95,0.03,,,0.15,weatherlink.com 1.10,2013-03-18 22:37:00,
2013-03-18 18:52:00,36.2,35.0,30.04,WNW,288,1.0,4.0,95,0.05,,,0.17,weatherlink.com 1.10,2013-03-18 22:52:00,
2013-03-18 19:07:00,36.1,35.0,30.04,NW,314,1.0,6.0,95,0.05,,,0.18,weatherlink.com 1.10,2013-03-18 23:07:00,
2013-03-18 19:22:00,36.0,35.0,30.07,West,271,4.0,7.0,95,0.06,,,0.20,weatherlink.com 1.10,2013-03-18 23:22:00,
2013-03-18 19:38:00,35.9,35.0,30.01,ESE,119,4.0,6.0,96,0.06,,,0.21,weatherlink.com 1.10,2013-03-18 23:38:00,
2013-03-18 19:52:00,35.8,35.0,30.01,SE,124,0.0,2.0,96,0.05,,,0.22,weatherlink.com 1.10,2013-03-18 23:52:00,
2013-03-18 20:07:00,35.7,35.0,30.02,SE,136,0.0,2.0,96,0.06,,,0.24,weatherlink.com 1.10,2013-03-19 00:07:00,
2013-03-18 20:23:00,35.7,35.0,30.00,ENE,71,0.0,3.0,96,0.05,,,0.25,weatherlink.com 1.10,2013-03-19 00:23:00,
2013-03-18 20:38:00,35.7,35.0,29.98,ENE,71,1.0,2.0,96,0.06,,,0.27,weatherlink.com 1.10,2013-03-19 00:38:00,
2013-03-18 20:53:00,35.7,35.0,29.96,ESE,105,0.0,2.0,96,0.05,,,0.28,weatherlink.com 1.10,2013-03-19 00:53:00,
2013-03-18 21:08:00,35.6,35.0,29.95,ESE,121,0.0,3.0,96,0.05,,,0.29,weatherlink.com 1.10,2013-03-19 01:08:00,
2013-03-18 21:23:00,35.5,35.0,29.94,South,189,1.0,3.0,96,0.04,,,0.30,weatherlink.com 1.10,2013-03-19 01:23:00,
2013-03-18 21:38:00,35.3,34.0,29.94,West,262,2.0,4.0,96,0.03,,,0.30,weatherlink.com 1.10,2013-03-19 01:38:00,
2013-03-18 21:53:00,35.3,34.0,29.95,WNW,300,1.0,4.0,96,0.03,,,0.31,weatherlink.com 1.10,2013-03-19 01:53:00,
2013-03-18 22:08:00,35.4,34.0,29.92,WNW,300,0.0,2.0,96,0.02,,,0.31,weatherlink.com 1.10,2013-03-19 02:08:00,
2013-03-18 22:23:00,35.4,34.0,29.93,NW,324,2.0,3.0,96,0.01,,,0.31,weatherlink.com 1.10,2013-03-19 02:23:00,
2013-03-18 22:38:00,35.4,34.0,29.93,NW,311,1.0,4.0,96,0.01,,,0.31,weatherlink.com 1.10,2013-03-19 02:38:00,
2013-03-18 22:53:00,35.5,35.0,29.96,NW,309,2.0,5.0,96,0.00,,,0.31,weatherlink.com 1.10,2013-03-19 02:53:00,
2013-03-18 23:08:00,35.5,35.0,29.95,SSW,203,0.0,4.0,96,0.00,,,0.31,weatherlink.com 1.10,2013-03-19 03:08:00,
2013-03-18 23:23:00,35.4,34.0,29.92,SE,134,2.0,3.0,96,0.00,,,0.31,weatherlink.com 1.10,2013-03-19 03:23:00,
2013-03-18 23:38:00,35.3,34.0,29.92,WNW,294,2.0,3.0,96,0.00,,,0.31,weatherlink.com 1.10,2013-03-19 03:38:00,
2013-03-18 23:53:00,35.4,34.0,29.92,WNW,294,0.0,3.0,96,0.00,,,0.31,weatherlink.com 1.10,2013-03-19 03:53:00,